createdAt,value
2019-05-21T00:01:05.303Z,553
2019-05-21T00:02:12.520Z,552
2019-05-21T00:03:19.730Z,551
2019-05-21T00:04:29.436Z,551
2019-05-21T00:05:36.645Z,549
2019-05-21T00:06:43.855Z,549
2019-05-21T00:07:51.064Z,552
2019-05-21T00:08:58.271Z,552
2019-05-21T00:10:05.203Z,550
2019-05-21T00:11:12.421Z,550
2019-05-21T00:12:19.635Z,552
2019-05-21T00:13:26.843Z,549
2019-05-21T00:14:34.060Z,550
2019-05-21T00:15:41.280Z,550
2019-05-21T00:16:48.224Z,550
2019-05-21T00:17:55.437Z,552
2019-05-21T00:19:02.639Z,552
2019-05-21T00:20:09.840Z,551
2019-05-21T00:21:17.063Z,552
2019-05-21T00:22:24.267Z,552
2019-05-21T00:23:31.482Z,553
2019-05-21T00:24:39.292Z,552
2019-05-21T00:25:46.583Z,550
2019-05-21T00:26:53.512Z,552
2019-05-21T00:28:00.713Z,553
2019-05-21T00:29:07.912Z,553
2019-05-21T00:30:14.843Z,558
2019-05-21T00:31:21.774Z,557
2019-05-21T00:32:28.979Z,558
2019-05-21T00:33:36.196Z,558
2019-05-21T00:34:45.317Z,559
2019-05-21T00:35:52.525Z,556
2019-05-21T00:37:00.059Z,558
2019-05-21T00:38:07.408Z,559
2019-05-21T00:39:14.623Z,560
2019-05-21T00:40:21.834Z,560
2019-05-21T00:41:28.767Z,559
2019-05-21T00:42:35.976Z,559
2019-05-21T00:43:43.187Z,558
2019-05-21T00:44:49.570Z,559
2019-05-21T00:45:56.779Z,559
2019-05-21T00:47:03.992Z,557
2019-05-21T00:48:10.650Z,555
2019-05-21T00:49:17.312Z,556
2019-05-21T00:50:24.517Z,562
2019-05-21T00:51:31.449Z,567
2019-05-21T00:52:38.655Z,565
2019-05-21T00:53:45.858Z,568
2019-05-21T00:54:52.810Z,571
2019-05-21T00:55:59.742Z,572
2019-05-21T00:57:06.951Z,572
2019-05-21T00:58:14.169Z,571
2019-05-21T00:59:20.839Z,573
2019-05-21T01:00:27.777Z,573
2019-05-21T01:01:34.993Z,574
2019-05-21T01:02:41.934Z,574
2019-05-21T01:03:49.142Z,575
2019-05-21T01:05:02.269Z,575
2019-05-21T01:06:09.471Z,574
2019-05-21T01:07:16.413Z,576
2019-05-21T01:08:23.617Z,580
2019-05-21T01:09:30.542Z,580
2019-05-21T01:10:37.753Z,579
2019-05-21T01:11:44.705Z,577
2019-05-21T01:12:51.895Z,576
2019-05-21T01:13:59.107Z,574
2019-05-21T01:15:06.316Z,579
2019-05-21T01:16:13.253Z,582
2019-05-21T01:17:19.900Z,585
2019-05-21T01:18:27.103Z,582
2019-05-21T01:19:34.046Z,583
2019-05-21T01:20:41.257Z,583
2019-05-21T01:21:48.452Z,583
2019-05-21T01:22:55.653Z,587
2019-05-21T01:24:02.603Z,586
2019-05-21T01:25:09.857Z,585
2019-05-21T01:26:17.067Z,581
2019-05-21T01:27:24.269Z,580
2019-05-21T01:28:31.473Z,583
2019-05-21T01:29:38.414Z,583
2019-05-21T01:30:45.617Z,580
2019-05-21T01:31:52.549Z,579
2019-05-21T01:32:59.750Z,579
2019-05-21T01:34:06.956Z,577
2019-05-21T01:35:18.350Z,579
2019-05-21T01:36:25.554Z,580
2019-05-21T01:37:32.756Z,581
2019-05-21T01:38:39.980Z,571
2019-05-21T01:39:47.194Z,574
2019-05-21T01:40:54.128Z,577
2019-05-21T01:42:01.385Z,576
2019-05-21T01:43:08.588Z,576
2019-05-21T01:44:15.798Z,572
2019-05-21T01:45:23.005Z,574
2019-05-21T01:46:30.252Z,573
2019-05-21T01:47:36.940Z,570
2019-05-21T01:48:43.878Z,569
2019-05-21T01:49:51.084Z,571
2019-05-21T01:50:58.304Z,566
2019-05-21T01:52:05.499Z,566
2019-05-21T01:53:12.716Z,567
2019-05-21T01:54:19.692Z,566
2019-05-21T01:55:26.637Z,563
2019-05-21T01:56:33.830Z,566
2019-05-21T01:57:40.770Z,563
2019-05-21T01:58:47.982Z,561
2019-05-21T01:59:55.185Z,562
2019-05-21T02:01:02.859Z,563
2019-05-21T02:02:09.790Z,561
2019-05-21T02:03:16.994Z,561
2019-05-21T02:04:24.200Z,561
2019-05-21T02:05:34.245Z,563
2019-05-21T02:06:41.459Z,561
2019-05-21T02:07:48.666Z,558
2019-05-21T02:08:55.873Z,561
2019-05-21T02:10:03.082Z,558
2019-05-21T02:11:10.294Z,558
2019-05-21T02:12:17.480Z,556
2019-05-21T02:13:24.409Z,559
2019-05-21T02:14:31.340Z,560
2019-05-21T02:15:38.667Z,557
2019-05-21T02:16:45.864Z,558
2019-05-21T02:17:53.064Z,557
2019-05-21T02:19:00.273Z,557
2019-05-21T02:20:07.510Z,556
2019-05-21T02:21:14.710Z,558
2019-05-21T02:22:21.915Z,559
2019-05-21T02:23:28.851Z,559
2019-05-21T02:24:36.057Z,557
2019-05-21T02:25:43.314Z,556
2019-05-21T02:26:50.531Z,556
2019-05-21T02:27:57.739Z,556
2019-05-21T02:29:04.689Z,558
2019-05-21T02:30:11.378Z,559
2019-05-21T02:31:18.591Z,555
2019-05-21T02:32:25.524Z,555
2019-05-21T02:33:32.460Z,557
2019-05-21T02:34:39.666Z,557
2019-05-21T02:35:55.806Z,554
2019-05-21T02:37:07.118Z,555
2019-05-21T02:38:14.055Z,560
2019-05-21T02:39:21.263Z,562
2019-05-21T02:40:28.470Z,560
2019-05-21T02:41:35.673Z,560
2019-05-21T02:42:42.877Z,562
2019-05-21T02:43:50.082Z,561
2019-05-21T02:44:57.288Z,558
2019-05-21T02:46:04.241Z,559
2019-05-21T02:47:11.448Z,562
2019-05-21T02:48:18.378Z,563
2019-05-21T02:49:25.590Z,562
2019-05-21T02:50:32.804Z,561
2019-05-21T02:51:40.017Z,562
2019-05-21T02:52:47.444Z,561
2019-05-21T02:53:54.645Z,561
2019-05-21T02:55:01.916Z,560
2019-05-21T02:56:09.148Z,561
2019-05-21T02:57:16.460Z,557
2019-05-21T02:58:23.653Z,556
2019-05-21T02:59:30.860Z,557
2019-05-21T03:00:39.929Z,557
2019-05-21T03:01:47.139Z,555
2019-05-21T03:02:54.390Z,554
2019-05-21T03:04:01.603Z,558
2019-05-21T03:05:08.851Z,555
2019-05-21T03:06:16.240Z,554
2019-05-21T03:07:26.549Z,554
2019-05-21T03:08:33.753Z,553
2019-05-21T03:09:40.692Z,554
2019-05-21T03:10:47.891Z,557
2019-05-21T03:11:55.101Z,556
2019-05-21T03:13:02.309Z,555
2019-05-21T03:14:08.957Z,554
2019-05-21T03:15:16.164Z,554
2019-05-21T03:16:23.375Z,554
2019-05-21T03:17:30.579Z,555
2019-05-21T03:18:37.794Z,556
2019-05-21T03:19:45.007Z,557
2019-05-21T03:20:52.206Z,558
2019-05-21T03:21:59.427Z,559
2019-05-21T03:23:06.637Z,560
2019-05-21T03:24:13.843Z,561
2019-05-21T03:25:21.046Z,560
2019-05-21T03:26:28.263Z,559
2019-05-21T03:27:35.483Z,559
2019-05-21T03:28:42.422Z,558
2019-05-21T03:29:49.623Z,558
2019-05-21T03:30:56.970Z,557
2019-05-21T03:32:04.304Z,559
2019-05-21T03:33:11.529Z,558
2019-05-21T03:34:18.736Z,558
2019-05-21T03:35:25.985Z,560
2019-05-21T03:36:35.322Z,560
2019-05-21T03:37:42.258Z,563
2019-05-21T03:38:49.460Z,567
2019-05-21T03:39:56.419Z,568
2019-05-21T03:41:03.632Z,570
2019-05-21T03:42:10.844Z,573
2019-05-21T03:43:18.052Z,570
2019-05-21T03:44:25.349Z,568
2019-05-21T03:45:32.297Z,572
2019-05-21T03:46:39.509Z,575
2019-05-21T03:47:46.734Z,573
2019-05-21T03:48:53.954Z,568
2019-05-21T03:50:00.910Z,570
2019-05-21T03:51:08.130Z,571
2019-05-21T03:52:15.318Z,571
2019-05-21T03:53:22.609Z,571
2019-05-21T03:54:29.818Z,569
2019-05-21T03:55:37.021Z,569
2019-05-21T03:56:44.229Z,570
2019-05-21T03:57:51.163Z,567
2019-05-21T03:58:58.368Z,566
2019-05-21T04:00:05.608Z,566
2019-05-21T04:01:12.818Z,565
2019-05-21T04:02:20.022Z,562
2019-05-21T04:03:27.226Z,564
2019-05-21T04:04:34.428Z,562
2019-05-21T04:05:41.381Z,560
2019-05-21T04:06:53.366Z,560
2019-05-21T04:08:00.572Z,561
2019-05-21T04:09:07.775Z,562
2019-05-21T04:10:14.702Z,561
2019-05-21T04:11:21.648Z,561
2019-05-21T04:12:28.854Z,559
2019-05-21T04:13:35.805Z,561
2019-05-21T04:14:42.745Z,560
2019-05-21T04:15:49.951Z,558
2019-05-21T04:16:56.885Z,557
2019-05-21T04:18:04.154Z,557
2019-05-21T04:19:11.359Z,555
2019-05-21T04:20:18.564Z,557
2019-05-21T04:21:25.775Z,557
2019-05-21T04:22:32.980Z,556
2019-05-21T04:23:39.910Z,557
2019-05-21T04:24:46.846Z,557
2019-05-21T04:25:54.060Z,555
2019-05-21T04:27:01.298Z,553
2019-05-21T04:28:08.267Z,554
2019-05-21T04:29:15.476Z,556
2019-05-21T04:30:22.686Z,557
2019-05-21T04:31:29.620Z,553
2019-05-21T04:32:36.821Z,553
2019-05-21T04:33:44.027Z,551
2019-05-21T04:34:50.977Z,551
2019-05-21T04:35:58.173Z,551
2019-05-21T04:37:17.014Z,553
2019-05-21T04:38:24.619Z,553
2019-05-21T04:39:31.882Z,552
2019-05-21T04:40:39.209Z,552
2019-05-21T04:41:46.418Z,548
2019-05-21T04:42:53.649Z,551
2019-05-21T04:44:00.855Z,551
2019-05-21T04:45:07.497Z,549
2019-05-21T04:46:14.714Z,549
2019-05-21T04:47:21.662Z,547
2019-05-21T04:48:28.869Z,546
2019-05-21T04:49:35.828Z,548
2019-05-21T04:50:43.055Z,547
2019-05-21T04:51:50.271Z,548
2019-05-21T04:52:57.479Z,548
2019-05-21T04:54:04.415Z,548
2019-05-21T04:55:11.624Z,547
2019-05-21T04:56:18.852Z,552
2019-05-21T04:57:25.792Z,550
2019-05-21T04:58:33.005Z,552
2019-05-21T04:59:40.228Z,548
2019-05-21T05:00:47.175Z,551
2019-05-21T05:01:54.111Z,552
2019-05-21T05:03:01.319Z,554
2019-05-21T05:04:08.284Z,553
2019-05-21T05:05:15.495Z,554
2019-05-21T05:06:22.706Z,554
2019-05-21T05:07:30.054Z,555
2019-05-21T05:08:37.259Z,548
2019-05-21T05:09:44.199Z,551
2019-05-21T05:10:51.410Z,554
2019-05-21T05:11:58.632Z,551
2019-05-21T05:13:05.870Z,551
2019-05-21T05:14:13.074Z,550
2019-05-21T05:15:20.002Z,549
2019-05-21T05:16:26.953Z,549
2019-05-21T05:17:34.188Z,549
2019-05-21T05:18:41.406Z,551
2019-05-21T05:19:48.618Z,553
2019-05-21T05:20:55.814Z,552
2019-05-21T05:22:02.854Z,549
2019-05-21T05:23:10.065Z,548
2019-05-21T05:24:17.276Z,546
2019-05-21T05:25:24.207Z,548
2019-05-21T05:26:31.264Z,546
2019-05-21T05:27:38.494Z,549
2019-05-21T05:28:45.707Z,549
2019-05-21T05:29:52.910Z,547
2019-05-21T05:31:00.115Z,550
2019-05-21T05:32:07.314Z,550
2019-05-21T05:33:14.541Z,553
2019-05-21T05:34:21.749Z,549
2019-05-21T05:35:43.364Z,555
2019-05-21T05:36:50.557Z,553
2019-05-21T05:37:57.498Z,554
2019-05-21T05:39:04.709Z,553
2019-05-21T05:40:12.069Z,553
2019-05-21T05:41:19.384Z,553
2019-05-21T05:42:26.314Z,552
2019-05-21T05:43:33.549Z,552
2019-05-21T05:44:40.746Z,551
2019-05-21T05:45:47.682Z,541
2019-05-21T05:46:54.893Z,532
2019-05-21T05:48:01.818Z,540
2019-05-21T05:49:09.022Z,552
2019-05-21T05:50:16.242Z,555
2019-05-21T05:51:23.448Z,556
2019-05-21T05:52:30.668Z,556
2019-05-21T05:53:37.603Z,556
2019-05-21T05:54:44.813Z,555
2019-05-21T05:55:52.018Z,555
2019-05-21T05:56:59.219Z,553
2019-05-21T05:58:06.420Z,554
2019-05-21T05:59:15.511Z,552
2019-05-21T06:00:22.716Z,554
2019-05-21T06:01:30.044Z,552
2019-05-21T06:02:37.251Z,552
2019-05-21T06:03:44.192Z,551
2019-05-21T06:04:51.395Z,550
2019-05-21T06:05:58.601Z,549
2019-05-21T06:07:05.860Z,549
2019-05-21T06:08:13.102Z,548
2019-05-21T06:09:20.377Z,547
2019-05-21T06:10:27.578Z,547
2019-05-21T06:11:34.784Z,547
2019-05-21T06:12:41.991Z,547
2019-05-21T06:13:49.199Z,543
2019-05-21T06:14:56.404Z,541
2019-05-21T06:16:03.620Z,545
2019-05-21T06:17:10.827Z,552
2019-05-21T06:18:18.034Z,551
2019-05-21T06:19:25.239Z,558
2019-05-21T06:20:32.445Z,558
2019-05-21T06:21:39.663Z,560
2019-05-21T06:22:46.864Z,560
2019-05-21T06:23:54.074Z,560
2019-05-21T06:25:01.014Z,559
2019-05-21T06:26:08.240Z,560
2019-05-21T06:27:15.174Z,559
2019-05-21T06:28:22.109Z,558
2019-05-21T06:29:29.315Z,547
2019-05-21T06:30:36.595Z,539
2019-05-21T06:31:43.793Z,549
2019-05-21T06:32:51.030Z,552
2019-05-21T06:33:58.231Z,561
2019-05-21T06:35:05.165Z,563
2019-05-21T06:36:12.426Z,565
2019-05-21T06:37:19.674Z,565
2019-05-21T06:38:26.886Z,565
2019-05-21T06:39:33.836Z,563
2019-05-21T06:40:41.039Z,563
2019-05-21T06:41:48.245Z,563
2019-05-21T06:42:55.169Z,552
2019-05-21T06:44:02.408Z,560
2019-05-21T06:45:09.401Z,562
2019-05-21T06:46:16.643Z,561
2019-05-21T06:47:23.849Z,562
2019-05-21T22:00:06.596Z,545
2019-05-21T22:01:13.536Z,541
2019-05-21T22:02:20.785Z,539
2019-05-21T22:03:27.986Z,538
2019-05-21T22:04:35.194Z,538
2019-05-21T22:05:42.138Z,538
2019-05-21T22:06:49.347Z,537
2019-05-21T22:07:56.581Z,537
2019-05-21T22:09:03.790Z,537
2019-05-21T22:10:10.991Z,537
2019-05-21T22:11:18.163Z,537
2019-05-21T22:12:24.808Z,536
2019-05-21T22:13:32.008Z,536
2019-05-21T22:26:16.927Z,535
2019-05-21T22:27:24.133Z,535
2019-05-21T22:28:31.336Z,535
2019-05-21T22:29:38.540Z,536
2019-05-21T22:30:45.741Z,536
2019-05-21T22:31:52.945Z,536
2019-05-21T22:33:00.187Z,535
2019-05-21T22:34:07.388Z,536
2019-05-21T22:35:14.594Z,535
2019-05-21T22:36:21.797Z,535
2019-05-21T22:37:29.000Z,536
2019-05-21T22:38:35.927Z,536
2019-05-21T22:39:43.128Z,536
2019-05-21T22:40:50.332Z,536
2019-05-21T22:41:57.261Z,536
2019-05-21T22:43:04.461Z,535
2019-05-21T22:44:11.667Z,535
2019-05-21T22:45:18.867Z,535
2019-05-21T22:46:26.077Z,535
2019-05-21T22:47:33.003Z,535
2019-05-21T22:48:40.206Z,536
2019-05-21T22:49:47.425Z,536
2019-05-21T22:50:54.625Z,536
2019-05-21T22:52:01.823Z,536
2019-05-21T22:53:09.026Z,535
2019-05-21T22:54:16.228Z,535
2019-05-21T22:55:23.434Z,535
2019-05-21T22:56:30.636Z,536
2019-05-21T22:57:37.834Z,535
2019-05-21T22:58:45.035Z,535
2019-05-21T22:59:51.970Z,536
2019-05-21T23:00:59.184Z,536
2019-05-21T23:02:06.389Z,535
2019-05-21T23:03:13.318Z,535
2019-05-21T23:04:20.524Z,535
2019-05-21T23:05:27.205Z,535
2019-05-21T23:06:34.413Z,535
2019-05-21T23:07:41.639Z,536
2019-05-21T23:08:48.860Z,535
2019-05-21T23:09:56.055Z,535
2019-05-21T23:11:03.270Z,535
2019-05-21T23:12:10.208Z,535
2019-05-21T23:13:17.414Z,535
2019-05-21T23:14:24.616Z,535
2019-05-21T23:15:31.823Z,535
2019-05-21T23:16:39.034Z,536
2019-05-21T23:17:46.282Z,535
2019-05-21T23:18:53.488Z,535
2019-05-21T23:20:00.699Z,535
2019-05-21T23:21:07.903Z,536
2019-05-21T23:22:15.113Z,535
2019-05-21T23:23:22.361Z,535
2019-05-21T23:24:29.313Z,535
2019-05-21T23:25:36.521Z,535
2019-05-21T23:26:43.724Z,536
2019-05-21T23:27:50.936Z,535
2019-05-21T23:28:58.214Z,535
2019-05-21T23:30:05.419Z,535
2019-05-21T23:31:12.084Z,536
2019-05-21T23:32:19.023Z,536
2019-05-21T23:33:25.948Z,536
2019-05-21T23:34:33.149Z,536
2019-05-21T23:35:40.088Z,536
2019-05-21T23:36:47.296Z,536
2019-05-21T23:37:54.521Z,536
2019-05-21T23:39:01.727Z,536
2019-05-21T23:40:08.941Z,536
2019-05-21T23:41:16.149Z,536
2019-05-21T23:42:30.854Z,536
2019-05-21T23:43:38.286Z,536
2019-05-21T23:44:45.497Z,536
2019-05-21T23:45:52.424Z,536
2019-05-21T23:46:59.355Z,536
2019-05-21T23:48:06.566Z,536
2019-05-21T23:49:13.769Z,536
2019-05-21T23:50:20.740Z,536
2019-05-21T23:51:27.989Z,536
2019-05-21T23:52:38.105Z,535
2019-05-21T23:53:45.312Z,536
2019-05-21T23:54:52.515Z,536
2019-05-21T23:55:59.756Z,536
2019-05-21T23:57:06.970Z,536
2019-05-21T23:58:14.182Z,536
2019-05-21T23:59:21.098Z,535
